sensor_id;sensor_type;location;lat;lon;timestamp;P1;durP1;ratioP1;P2;durP2;ratioP2
70761;SDS011;58360;0.000;0.000;2023-05-21T00:01:01;6.30;;;3.20;;
70761;SDS011;58360;0.000;0.000;2023-05-21T00:03:27;7.60;;;3.20;;
70761;SDS011;58360;0.000;0.000;2023-05-21T00:05:54;6.75;;;3.20;;
70761;SDS011;58360;0.000;0.000;2023-05-21T00:08:20;10.13;;;2.95;;
70761;SDS011;58360;0.000;0.000;2023-05-21T00:10:46;7.82;;;3.22;;
70761;SDS011;58360;0.000;0.000;2023-05-21T00:13:12;5.50;;;3.17;;
70761;SDS011;58360;0.000;0.000;2023-05-21T00:15:37;7.72;;;3.25;;
70761;SDS011;58360;0.000;0.000;2023-05-21T00:18:03;8.10;;;3.88;;
70761;SDS011;58360;0.000;0.000;2023-05-21T00:20:29;7.93;;;3.60;;
70761;SDS011;58360;0.000;0.000;2023-05-21T00:22:56;8.18;;;3.42;;
70761;SDS011;58360;0.000;0.000;2023-05-21T00:25:22;5.75;;;3.08;;
70761;SDS011;58360;0.000;0.000;2023-05-21T00:27:48;6.65;;;3.03;;
70761;SDS011;58360;0.000;0.000;2023-05-21T00:30:14;6.05;;;3.00;;
70761;SDS011;58360;0.000;0.000;2023-05-21T00:32:40;6.47;;;3.60;;
70761;SDS011;58360;0.000;0.000;2023-05-21T00:35:06;7.68;;;3.13;;
70761;SDS011;58360;0.000;0.000;2023-05-21T00:37:32;8.68;;;3.28;;
70761;SDS011;58360;0.000;0.000;2023-05-21T00:39:59;9.07;;;3.80;;
70761;SDS011;58360;0.000;0.000;2023-05-21T00:42:25;6.72;;;3.63;;
70761;SDS011;58360;0.000;0.000;2023-05-21T00:44:52;6.45;;;3.10;;
70761;SDS011;58360;0.000;0.000;2023-05-21T00:47:18;6.88;;;3.70;;
70761;SDS011;58360;0.000;0.000;2023-05-21T00:49:45;6.15;;;3.00;;
70761;SDS011;58360;0.000;0.000;2023-05-21T00:52:12;5.40;;;3.30;;
70761;SDS011;58360;0.000;0.000;2023-05-21T00:54:44;6.10;;;3.40;;
70761;SDS011;58360;0.000;0.000;2023-05-21T00:57:11;6.95;;;3.33;;
70761;SDS011;58360;0.000;0.000;2023-05-21T00:59:38;8.10;;;3.40;;
70761;SDS011;58360;0.000;0.000;2023-05-21T01:02:04;5.78;;;3.60;;
70761;SDS011;58360;0.000;0.000;2023-05-21T01:04:30;8.40;;;3.20;;
70761;SDS011;58360;0.000;0.000;2023-05-21T01:06:56;7.22;;;3.63;;
70761;SDS011;58360;0.000;0.000;2023-05-21T01:09:23;8.70;;;3.95;;
70761;SDS011;58360;0.000;0.000;2023-05-21T01:11:53;8.68;;;3.65;;
70761;SDS011;58360;0.000;0.000;2023-05-21T01:14:20;5.88;;;3.50;;
70761;SDS011;58360;0.000;0.000;2023-05-21T01:16:48;6.88;;;3.63;;
70761;SDS011;58360;0.000;0.000;2023-05-21T01:19:16;7.30;;;3.75;;
70761;SDS011;58360;0.000;0.000;2023-05-21T01:21:44;6.03;;;3.83;;
70761;SDS011;58360;0.000;0.000;2023-05-21T01:24:30;6.75;;;3.88;;
70761;SDS011;58360;0.000;0.000;2023-05-21T01:26:57;7.47;;;3.75;;
70761;SDS011;58360;0.000;0.000;2023-05-21T01:29:25;7.78;;;3.70;;
70761;SDS011;58360;0.000;0.000;2023-05-21T01:31:54;6.43;;;3.47;;
70761;SDS011;58360;0.000;0.000;2023-05-21T01:37:16;7.53;;;3.80;;
70761;SDS011;58360;0.000;0.000;2023-05-21T01:40:10;8.05;;;4.30;;
70761;SDS011;58360;0.000;0.000;2023-05-21T01:42:44;7.50;;;3.70;;
70761;SDS011;58360;0.000;0.000;2023-05-21T01:45:11;7.28;;;3.67;;
70761;SDS011;58360;0.000;0.000;2023-05-21T01:47:39;6.63;;;3.65;;
70761;SDS011;58360;0.000;0.000;2023-05-21T01:50:07;10.18;;;3.88;;
70761;SDS011;58360;0.000;0.000;2023-05-21T01:52:33;6.50;;;3.65;;
70761;SDS011;58360;0.000;0.000;2023-05-21T01:55:00;6.68;;;3.88;;
70761;SDS011;58360;0.000;0.000;2023-05-21T01:57:26;5.72;;;3.70;;
70761;SDS011;58360;0.000;0.000;2023-05-21T01:59:51;8.43;;;4.47;;
70761;SDS011;58360;0.000;0.000;2023-05-21T02:02:18;10.10;;;4.57;;
70761;SDS011;58360;0.000;0.000;2023-05-21T02:04:43;6.45;;;3.97;;
70761;SDS011;58360;0.000;0.000;2023-05-21T02:07:10;8.48;;;4.25;;
70761;SDS011;58360;0.000;0.000;2023-05-21T02:09:38;8.98;;;4.43;;
70761;SDS011;58360;0.000;0.000;2023-05-21T02:12:04;8.93;;;4.20;;
70761;SDS011;58360;0.000;0.000;2023-05-21T02:14:31;10.38;;;4.13;;
70761;SDS011;58360;0.000;0.000;2023-05-21T02:17:00;6.65;;;3.92;;
70761;SDS011;58360;0.000;0.000;2023-05-21T02:19:26;6.25;;;3.90;;
70761;SDS011;58360;0.000;0.000;2023-05-21T02:21:51;7.53;;;4.18;;
70761;SDS011;58360;0.000;0.000;2023-05-21T02:24:17;7.43;;;4.00;;
70761;SDS011;58360;0.000;0.000;2023-05-21T02:26:43;7.20;;;3.70;;
70761;SDS011;58360;0.000;0.000;2023-05-21T02:29:08;7.00;;;4.43;;
70761;SDS011;58360;0.000;0.000;2023-05-21T02:31:34;6.78;;;3.88;;
70761;SDS011;58360;0.000;0.000;2023-05-21T02:34:00;7.80;;;4.45;;
70761;SDS011;58360;0.000;0.000;2023-05-21T02:36:26;7.28;;;4.45;;
70761;SDS011;58360;0.000;0.000;2023-05-21T02:38:52;7.40;;;4.30;;
70761;SDS011;58360;0.000;0.000;2023-05-21T02:41:19;6.82;;;4.15;;
70761;SDS011;58360;0.000;0.000;2023-05-21T02:43:45;6.70;;;3.95;;
70761;SDS011;58360;0.000;0.000;2023-05-21T02:46:11;8.00;;;4.10;;
70761;SDS011;58360;0.000;0.000;2023-05-21T02:48:37;9.80;;;4.50;;
70761;SDS011;58360;0.000;0.000;2023-05-21T02:51:03;9.27;;;4.35;;
70761;SDS011;58360;0.000;0.000;2023-05-21T02:53:28;8.70;;;4.53;;
70761;SDS011;58360;0.000;0.000;2023-05-21T02:55:54;7.47;;;4.93;;
70761;SDS011;58360;0.000;0.000;2023-05-21T02:58:20;7.90;;;4.43;;
70761;SDS011;58360;0.000;0.000;2023-05-21T03:00:49;7.13;;;4.25;;
70761;SDS011;58360;0.000;0.000;2023-05-21T03:03:15;7.75;;;4.68;;
70761;SDS011;58360;0.000;0.000;2023-05-21T03:05:40;11.52;;;4.03;;
70761;SDS011;58360;0.000;0.000;2023-05-21T03:08:06;9.70;;;4.53;;
70761;SDS011;58360;0.000;0.000;2023-05-21T03:10:32;9.70;;;4.55;;
70761;SDS011;58360;0.000;0.000;2023-05-21T03:12:57;7.78;;;4.65;;
70761;SDS011;58360;0.000;0.000;2023-05-21T03:15:23;7.22;;;4.45;;
70761;SDS011;58360;0.000;0.000;2023-05-21T03:17:49;8.05;;;4.45;;
70761;SDS011;58360;0.000;0.000;2023-05-21T03:20:15;8.77;;;4.38;;
70761;SDS011;58360;0.000;0.000;2023-05-21T03:22:42;8.88;;;4.63;;
70761;SDS011;58360;0.000;0.000;2023-05-21T03:25:09;10.88;;;4.88;;
70761;SDS011;58360;0.000;0.000;2023-05-21T03:27:36;10.60;;;4.93;;
70761;SDS011;58360;0.000;0.000;2023-05-21T03:30:05;8.40;;;4.85;;
70761;SDS011;58360;0.000;0.000;2023-05-21T03:32:31;8.30;;;5.13;;
70761;SDS011;58360;0.000;0.000;2023-05-21T03:35:02;9.27;;;5.30;;
70761;SDS011;58360;0.000;0.000;2023-05-21T03:37:29;9.30;;;4.53;;
70761;SDS011;58360;0.000;0.000;2023-05-21T03:39:54;6.60;;;4.55;;
70761;SDS011;58360;0.000;0.000;2023-05-21T03:42:20;10.60;;;4.97;;
70761;SDS011;58360;0.000;0.000;2023-05-21T03:44:46;8.38;;;5.00;;
70761;SDS011;58360;0.000;0.000;2023-05-21T03:47:11;11.77;;;5.60;;
70761;SDS011;58360;0.000;0.000;2023-05-21T03:49:37;12.32;;;5.35;;
70761;SDS011;58360;0.000;0.000;2023-05-21T03:52:03;7.18;;;4.65;;
70761;SDS011;58360;0.000;0.000;2023-05-21T03:54:28;7.43;;;4.70;;
70761;SDS011;58360;0.000;0.000;2023-05-21T03:56:54;11.82;;;4.95;;
70761;SDS011;58360;0.000;0.000;2023-05-21T03:59:20;8.77;;;4.68;;
70761;SDS011;58360;0.000;0.000;2023-05-21T04:01:46;10.23;;;5.35;;
70761;SDS011;58360;0.000;0.000;2023-05-21T04:04:11;9.43;;;4.75;;
70761;SDS011;58360;0.000;0.000;2023-05-21T04:06:37;9.43;;;5.25;;
70761;SDS011;58360;0.000;0.000;2023-05-21T04:09:02;6.38;;;4.63;;
70761;SDS011;58360;0.000;0.000;2023-05-21T04:11:28;9.13;;;4.97;;
70761;SDS011;58360;0.000;0.000;2023-05-21T04:13:55;9.18;;;4.57;;
70761;SDS011;58360;0.000;0.000;2023-05-21T04:16:20;7.90;;;5.15;;
70761;SDS011;58360;0.000;0.000;2023-05-21T04:18:48;7.15;;;4.38;;
70761;SDS011;58360;0.000;0.000;2023-05-21T04:21:14;6.72;;;4.68;;
70761;SDS011;58360;0.000;0.000;2023-05-21T04:23:40;10.07;;;4.82;;
70761;SDS011;58360;0.000;0.000;2023-05-21T04:26:05;7.80;;;4.70;;
70761;SDS011;58360;0.000;0.000;2023-05-21T04:28:31;8.00;;;4.68;;
70761;SDS011;58360;0.000;0.000;2023-05-21T04:30:57;8.73;;;5.03;;
70761;SDS011;58360;0.000;0.000;2023-05-21T04:33:23;8.90;;;5.10;;
70761;SDS011;58360;0.000;0.000;2023-05-21T04:35:49;6.85;;;4.60;;
70761;SDS011;58360;0.000;0.000;2023-05-21T04:38:18;13.27;;;5.07;;
70761;SDS011;58360;0.000;0.000;2023-05-21T04:40:45;8.10;;;4.53;;
70761;SDS011;58360;0.000;0.000;2023-05-21T04:43:17;11.05;;;4.47;;
70761;SDS011;58360;0.000;0.000;2023-05-21T04:45:50;6.88;;;4.40;;
70761;SDS011;58360;0.000;0.000;2023-05-21T04:48:16;10.13;;;4.65;;
70761;SDS011;58360;0.000;0.000;2023-05-21T04:50:43;7.55;;;4.30;;
70761;SDS011;58360;0.000;0.000;2023-05-21T04:53:08;7.32;;;4.35;;
70761;SDS011;58360;0.000;0.000;2023-05-21T04:55:34;10.77;;;4.75;;
70761;SDS011;58360;0.000;0.000;2023-05-21T04:58:04;9.90;;;4.60;;
70761;SDS011;58360;0.000;0.000;2023-05-21T05:00:34;8.38;;;5.10;;
70761;SDS011;58360;0.000;0.000;2023-05-21T05:03:10;9.00;;;4.35;;
70761;SDS011;58360;0.000;0.000;2023-05-21T05:05:36;8.15;;;5.22;;
70761;SDS011;58360;0.000;0.000;2023-05-21T05:08:03;9.57;;;4.60;;
70761;SDS011;58360;0.000;0.000;2023-05-21T05:10:28;9.07;;;4.60;;
70761;SDS011;58360;0.000;0.000;2023-05-21T05:12:54;7.75;;;4.38;;
70761;SDS011;58360;0.000;0.000;2023-05-21T05:15:20;7.85;;;4.75;;
70761;SDS011;58360;0.000;0.000;2023-05-21T05:17:45;8.25;;;4.68;;
70761;SDS011;58360;0.000;0.000;2023-05-21T05:20:14;9.75;;;5.05;;
70761;SDS011;58360;0.000;0.000;2023-05-21T05:22:40;6.22;;;4.03;;
70761;SDS011;58360;0.000;0.000;2023-05-21T05:25:05;7.93;;;4.72;;
70761;SDS011;58360;0.000;0.000;2023-05-21T05:27:32;8.77;;;4.07;;
70761;SDS011;58360;0.000;0.000;2023-05-21T05:29:57;7.68;;;4.75;;
70761;SDS011;58360;0.000;0.000;2023-05-21T05:32:24;8.88;;;4.15;;
70761;SDS011;58360;0.000;0.000;2023-05-21T05:34:50;11.63;;;4.60;;
70761;SDS011;58360;0.000;0.000;2023-05-21T05:37:15;7.75;;;4.55;;
70761;SDS011;58360;0.000;0.000;2023-05-21T05:39:41;8.75;;;4.63;;
70761;SDS011;58360;0.000;0.000;2023-05-21T05:42:07;7.80;;;4.80;;
70761;SDS011;58360;0.000;0.000;2023-05-21T05:44:32;9.40;;;5.00;;
70761;SDS011;58360;0.000;0.000;2023-05-21T05:46:58;10.65;;;4.75;;
70761;SDS011;58360;0.000;0.000;2023-05-21T05:49:24;8.95;;;5.57;;
70761;SDS011;58360;0.000;0.000;2023-05-21T05:51:49;9.77;;;4.40;;
70761;SDS011;58360;0.000;0.000;2023-05-21T05:54:15;10.40;;;4.95;;
70761;SDS011;58360;0.000;0.000;2023-05-21T05:56:42;6.97;;;4.45;;
70761;SDS011;58360;0.000;0.000;2023-05-21T05:59:09;7.47;;;4.30;;
70761;SDS011;58360;0.000;0.000;2023-05-21T06:01:36;10.15;;;5.43;;
70761;SDS011;58360;0.000;0.000;2023-05-21T06:04:02;11.13;;;5.15;;
70761;SDS011;58360;0.000;0.000;2023-05-21T06:06:29;10.10;;;5.07;;
70761;SDS011;58360;0.000;0.000;2023-05-21T06:08:55;10.27;;;4.88;;
70761;SDS011;58360;0.000;0.000;2023-05-21T06:11:21;8.90;;;5.05;;
70761;SDS011;58360;0.000;0.000;2023-05-21T06:13:46;10.75;;;5.25;;
70761;SDS011;58360;0.000;0.000;2023-05-21T06:16:12;7.50;;;4.63;;
70761;SDS011;58360;0.000;0.000;2023-05-21T06:18:38;7.28;;;4.55;;
70761;SDS011;58360;0.000;0.000;2023-05-21T06:21:03;7.97;;;4.90;;
70761;SDS011;58360;0.000;0.000;2023-05-21T06:23:29;11.02;;;5.07;;
70761;SDS011;58360;0.000;0.000;2023-05-21T06:25:56;10.68;;;5.45;;
70761;SDS011;58360;0.000;0.000;2023-05-21T06:28:22;10.07;;;5.72;;
70761;SDS011;58360;0.000;0.000;2023-05-21T06:30:47;9.10;;;5.35;;
70761;SDS011;58360;0.000;0.000;2023-05-21T06:33:13;8.57;;;5.10;;
70761;SDS011;58360;0.000;0.000;2023-05-21T06:35:38;7.88;;;4.68;;
70761;SDS011;58360;0.000;0.000;2023-05-21T06:38:04;7.20;;;5.25;;
70761;SDS011;58360;0.000;0.000;2023-05-21T06:40:30;6.85;;;4.40;;
70761;SDS011;58360;0.000;0.000;2023-05-21T06:42:55;8.27;;;4.82;;
70761;SDS011;58360;0.000;0.000;2023-05-21T06:45:23;8.15;;;5.32;;
70761;SDS011;58360;0.000;0.000;2023-05-21T06:47:49;8.10;;;5.30;;
70761;SDS011;58360;0.000;0.000;2023-05-21T06:50:15;10.40;;;5.10;;
70761;SDS011;58360;0.000;0.000;2023-05-21T06:52:41;9.63;;;5.50;;
70761;SDS011;58360;0.000;0.000;2023-05-21T06:55:06;11.30;;;6.00;;
70761;SDS011;58360;0.000;0.000;2023-05-21T06:57:32;9.80;;;4.95;;
70761;SDS011;58360;0.000;0.000;2023-05-21T06:59:58;8.23;;;5.35;;
70761;SDS011;58360;0.000;0.000;2023-05-21T07:02:24;9.32;;;5.82;;
70761;SDS011;58360;0.000;0.000;2023-05-21T07:04:50;8.60;;;5.70;;
70761;SDS011;58360;0.000;0.000;2023-05-21T07:07:17;6.68;;;4.07;;
70761;SDS011;58360;0.000;0.000;2023-05-21T07:09:43;12.13;;;5.30;;
70761;SDS011;58360;0.000;0.000;2023-05-21T07:12:08;9.35;;;5.47;;
70761;SDS011;58360;0.000;0.000;2023-05-21T07:14:34;8.10;;;5.38;;
70761;SDS011;58360;0.000;0.000;2023-05-21T07:17:00;7.85;;;5.10;;
70761;SDS011;58360;0.000;0.000;2023-05-21T07:19:25;12.40;;;5.18;;
70761;SDS011;58360;0.000;0.000;2023-05-21T07:21:51;10.13;;;4.95;;
70761;SDS011;58360;0.000;0.000;2023-05-21T07:24:16;6.75;;;3.67;;
70761;SDS011;58360;0.000;0.000;2023-05-21T07:26:42;7.57;;;4.20;;
70761;SDS011;58360;0.000;0.000;2023-05-21T07:29:08;7.97;;;4.30;;
70761;SDS011;58360;0.000;0.000;2023-05-21T07:31:33;8.25;;;4.45;;
70761;SDS011;58360;0.000;0.000;2023-05-21T07:33:59;9.18;;;4.75;;
70761;SDS011;58360;0.000;0.000;2023-05-21T07:36:25;8.43;;;4.50;;
70761;SDS011;58360;0.000;0.000;2023-05-21T07:38:51;12.05;;;5.50;;
70761;SDS011;58360;0.000;0.000;2023-05-21T07:41:17;9.18;;;4.63;;
70761;SDS011;58360;0.000;0.000;2023-05-21T07:43:42;10.18;;;4.75;;
70761;SDS011;58360;0.000;0.000;2023-05-21T07:46:08;7.43;;;4.47;;
70761;SDS011;58360;0.000;0.000;2023-05-21T07:48:33;6.60;;;4.13;;
70761;SDS011;58360;0.000;0.000;2023-05-21T07:50:59;11.00;;;3.92;;
70761;SDS011;58360;0.000;0.000;2023-05-21T07:53:25;5.85;;;4.10;;
70761;SDS011;58360;0.000;0.000;2023-05-21T07:55:51;7.40;;;4.50;;
70761;SDS011;58360;0.000;0.000;2023-05-21T07:58:17;9.50;;;5.25;;
70761;SDS011;58360;0.000;0.000;2023-05-21T08:00:44;9.00;;;4.95;;
70761;SDS011;58360;0.000;0.000;2023-05-21T08:03:14;8.18;;;4.72;;
70761;SDS011;58360;0.000;0.000;2023-05-21T08:05:41;8.35;;;4.90;;
70761;SDS011;58360;0.000;0.000;2023-05-21T08:08:16;9.02;;;5.13;;
70761;SDS011;58360;0.000;0.000;2023-05-21T08:10:43;5.95;;;4.50;;
70761;SDS011;58360;0.000;0.000;2023-05-21T08:13:13;8.38;;;5.38;;
70761;SDS011;58360;0.000;0.000;2023-05-21T08:15:40;10.02;;;5.30;;
70761;SDS011;58360;0.000;0.000;2023-05-21T08:18:06;6.47;;;4.35;;
70761;SDS011;58360;0.000;0.000;2023-05-21T08:20:31;7.03;;;4.72;;
70761;SDS011;58360;0.000;0.000;2023-05-21T08:22:58;7.80;;;4.97;;
70761;SDS011;58360;0.000;0.000;2023-05-21T08:25:26;7.63;;;4.82;;
70761;SDS011;58360;0.000;0.000;2023-05-21T08:27:52;6.43;;;4.32;;
70761;SDS011;58360;0.000;0.000;2023-05-21T08:30:18;10.55;;;5.03;;
70761;SDS011;58360;0.000;0.000;2023-05-21T08:32:44;7.50;;;4.55;;
70761;SDS011;58360;0.000;0.000;2023-05-21T08:35:11;6.47;;;4.45;;
70761;SDS011;58360;0.000;0.000;2023-05-21T08:37:36;6.72;;;4.40;;
70761;SDS011;58360;0.000;0.000;2023-05-21T08:40:02;9.48;;;5.18;;
70761;SDS011;58360;0.000;0.000;2023-05-21T08:42:32;6.68;;;3.90;;
70761;SDS011;58360;0.000;0.000;2023-05-21T08:45:04;6.57;;;4.78;;
70761;SDS011;58360;0.000;0.000;2023-05-21T08:47:33;8.43;;;5.03;;
70761;SDS011;58360;0.000;0.000;2023-05-21T08:50:00;10.88;;;4.82;;
70761;SDS011;58360;0.000;0.000;2023-05-21T08:52:32;6.30;;;4.50;;
70761;SDS011;58360;0.000;0.000;2023-05-21T08:54:58;10.50;;;5.63;;
70761;SDS011;58360;0.000;0.000;2023-05-21T08:57:24;8.93;;;4.25;;
70761;SDS011;58360;0.000;0.000;2023-05-21T08:59:50;6.95;;;3.85;;
70761;SDS011;58360;0.000;0.000;2023-05-21T09:02:17;12.68;;;5.55;;
70761;SDS011;58360;0.000;0.000;2023-05-21T09:04:44;7.28;;;5.20;;
70761;SDS011;58360;0.000;0.000;2023-05-21T09:07:13;7.53;;;5.10;;
70761;SDS011;58360;0.000;0.000;2023-05-21T09:09:46;7.35;;;4.55;;
70761;SDS011;58360;0.000;0.000;2023-05-21T09:12:17;6.22;;;4.40;;
70761;SDS011;58360;0.000;0.000;2023-05-21T09:14:43;10.65;;;5.40;;
70761;SDS011;58360;0.000;0.000;2023-05-21T09:17:14;10.15;;;5.32;;
70761;SDS011;58360;0.000;0.000;2023-05-21T09:22:34;7.72;;;4.57;;
70761;SDS011;58360;0.000;0.000;2023-05-21T09:25:03;7.18;;;5.00;;
70761;SDS011;58360;0.000;0.000;2023-05-21T09:29:56;8.15;;;4.75;;
70761;SDS011;58360;0.000;0.000;2023-05-21T09:32:24;7.43;;;5.45;;
70761;SDS011;58360;0.000;0.000;2023-05-21T09:34:50;6.88;;;4.72;;
70761;SDS011;58360;0.000;0.000;2023-05-21T09:37:16;8.38;;;4.78;;
70761;SDS011;58360;0.000;0.000;2023-05-21T09:39:41;8.25;;;4.95;;
70761;SDS011;58360;0.000;0.000;2023-05-21T09:42:07;10.55;;;5.20;;
70761;SDS011;58360;0.000;0.000;2023-05-21T09:44:36;8.15;;;5.05;;
70761;SDS011;58360;0.000;0.000;2023-05-21T09:47:02;12.45;;;5.90;;
70761;SDS011;58360;0.000;0.000;2023-05-21T09:49:28;9.75;;;4.90;;
70761;SDS011;58360;0.000;0.000;2023-05-21T09:51:54;7.45;;;4.32;;
70761;SDS011;58360;0.000;0.000;2023-05-21T09:54:21;7.20;;;4.60;;
70761;SDS011;58360;0.000;0.000;2023-05-21T09:56:48;8.48;;;5.03;;
70761;SDS011;58360;0.000;0.000;2023-05-21T09:59:15;6.75;;;4.63;;
70761;SDS011;58360;0.000;0.000;2023-05-21T10:01:41;7.70;;;5.07;;
70761;SDS011;58360;0.000;0.000;2023-05-21T10:04:08;7.45;;;5.13;;
70761;SDS011;58360;0.000;0.000;2023-05-21T10:06:36;6.85;;;4.15;;
70761;SDS011;58360;0.000;0.000;2023-05-21T10:09:06;7.68;;;5.13;;
70761;SDS011;58360;0.000;0.000;2023-05-21T10:11:35;11.02;;;5.60;;
70761;SDS011;58360;0.000;0.000;2023-05-21T10:14:09;8.25;;;5.68;;
70761;SDS011;58360;0.000;0.000;2023-05-21T10:16:40;8.52;;;5.20;;
70761;SDS011;58360;0.000;0.000;2023-05-21T10:19:07;9.38;;;6.15;;
70761;SDS011;58360;0.000;0.000;2023-05-21T10:21:35;10.45;;;6.00;;
70761;SDS011;58360;0.000;0.000;2023-05-21T10:24:01;7.15;;;4.68;;
70761;SDS011;58360;0.000;0.000;2023-05-21T10:26:28;8.65;;;5.47;;
70761;SDS011;58360;0.000;0.000;2023-05-21T10:28:55;8.80;;;6.60;;
70761;SDS011;58360;0.000;0.000;2023-05-21T10:31:21;8.65;;;6.50;;
70761;SDS011;58360;0.000;0.000;2023-05-21T10:33:47;8.32;;;6.40;;
70761;SDS011;58360;0.000;0.000;2023-05-21T10:36:17;11.15;;;8.07;;
70761;SDS011;58360;0.000;0.000;2023-05-21T10:38:45;12.00;;;7.72;;
70761;SDS011;58360;0.000;0.000;2023-05-21T10:41:12;9.10;;;5.95;;
70761;SDS011;58360;0.000;0.000;2023-05-21T10:46:49;13.38;;;6.68;;
70761;SDS011;58360;0.000;0.000;2023-05-21T10:52:30;9.70;;;7.15;;
70761;SDS011;58360;0.000;0.000;2023-05-21T11:01:08;8.38;;;5.68;;
70761;SDS011;58360;0.000;0.000;2023-05-21T11:03:34;8.85;;;6.47;;
70761;SDS011;58360;0.000;0.000;2023-05-21T11:06:01;11.88;;;8.02;;
70761;SDS011;58360;0.000;0.000;2023-05-21T11:08:30;8.43;;;5.28;;
70761;SDS011;58360;0.000;0.000;2023-05-21T11:10:59;12.02;;;6.15;;
70761;SDS011;58360;0.000;0.000;2023-05-21T11:13:26;8.02;;;5.60;;
70761;SDS011;58360;0.000;0.000;2023-05-21T11:21:09;8.63;;;6.63;;
70761;SDS011;58360;0.000;0.000;2023-05-21T11:26:23;9.60;;;7.22;;
70761;SDS011;58360;0.000;0.000;2023-05-21T11:31:29;17.58;;;9.52;;
70761;SDS011;58360;0.000;0.000;2023-05-21T11:36:47;11.30;;;7.93;;
70761;SDS011;58360;0.000;0.000;2023-05-21T11:39:17;15.32;;;8.93;;
70761;SDS011;58360;0.000;0.000;2023-05-21T11:41:56;14.70;;;8.30;;
70761;SDS011;58360;0.000;0.000;2023-05-21T11:44:38;12.00;;;7.40;;
70761;SDS011;58360;0.000;0.000;2023-05-21T11:47:07;10.57;;;7.55;;
70761;SDS011;58360;0.000;0.000;2023-05-21T11:49:34;12.38;;;9.15;;
70761;SDS011;58360;0.000;0.000;2023-05-21T11:52:04;13.57;;;7.70;;
70761;SDS011;58360;0.000;0.000;2023-05-21T11:54:31;11.60;;;6.47;;
70761;SDS011;58360;0.000;0.000;2023-05-21T11:57:01;12.93;;;8.15;;
70761;SDS011;58360;0.000;0.000;2023-05-21T11:59:31;13.95;;;8.60;;
70761;SDS011;58360;0.000;0.000;2023-05-21T12:01:58;14.13;;;8.60;;
70761;SDS011;58360;0.000;0.000;2023-05-21T12:04:30;15.60;;;9.38;;
70761;SDS011;58360;0.000;0.000;2023-05-21T12:06:57;12.75;;;9.25;;
70761;SDS011;58360;0.000;0.000;2023-05-21T12:09:23;14.05;;;8.90;;
70761;SDS011;58360;0.000;0.000;2023-05-21T12:11:49;15.98;;;8.80;;
70761;SDS011;58360;0.000;0.000;2023-05-21T12:14:15;13.88;;;7.68;;
70761;SDS011;58360;0.000;0.000;2023-05-21T12:16:41;14.05;;;8.77;;
70761;SDS011;58360;0.000;0.000;2023-05-21T12:19:07;16.55;;;10.68;;
70761;SDS011;58360;0.000;0.000;2023-05-21T12:21:33;12.77;;;9.23;;
70761;SDS011;58360;0.000;0.000;2023-05-21T12:23:59;16.15;;;8.15;;
70761;SDS011;58360;0.000;0.000;2023-05-21T12:26:26;14.73;;;9.07;;
70761;SDS011;58360;0.000;0.000;2023-05-21T12:28:52;18.30;;;8.98;;
70761;SDS011;58360;0.000;0.000;2023-05-21T12:31:19;17.90;;;9.65;;
70761;SDS011;58360;0.000;0.000;2023-05-21T12:33:47;11.93;;;8.02;;
70761;SDS011;58360;0.000;0.000;2023-05-21T12:36:20;13.77;;;6.97;;
70761;SDS011;58360;0.000;0.000;2023-05-21T12:38:53;11.90;;;7.43;;
70761;SDS011;58360;0.000;0.000;2023-05-21T12:41:19;12.07;;;7.90;;
70761;SDS011;58360;0.000;0.000;2023-05-21T12:43:46;9.32;;;7.30;;
70761;SDS011;58360;0.000;0.000;2023-05-21T12:46:15;13.32;;;8.68;;
70761;SDS011;58360;0.000;0.000;2023-05-21T12:48:52;12.90;;;7.10;;
70761;SDS011;58360;0.000;0.000;2023-05-21T12:51:19;12.90;;;7.57;;
70761;SDS011;58360;0.000;0.000;2023-05-21T12:53:45;12.00;;;7.35;;
70761;SDS011;58360;0.000;0.000;2023-05-21T12:56:12;13.07;;;8.05;;
70761;SDS011;58360;0.000;0.000;2023-05-21T12:58:39;11.00;;;7.28;;
70761;SDS011;58360;0.000;0.000;2023-05-21T13:01:09;9.07;;;7.05;;
70761;SDS011;58360;0.000;0.000;2023-05-21T13:03:36;9.95;;;6.68;;
70761;SDS011;58360;0.000;0.000;2023-05-21T13:06:04;9.23;;;6.78;;
70761;SDS011;58360;0.000;0.000;2023-05-21T13:08:31;10.35;;;7.00;;
70761;SDS011;58360;0.000;0.000;2023-05-21T13:10:58;13.93;;;8.00;;
70761;SDS011;58360;0.000;0.000;2023-05-21T13:13:25;11.57;;;7.18;;
70761;SDS011;58360;0.000;0.000;2023-05-21T13:15:51;9.80;;;7.47;;
70761;SDS011;58360;0.000;0.000;2023-05-21T13:18:18;9.55;;;6.53;;
70761;SDS011;58360;0.000;0.000;2023-05-21T13:20:44;14.13;;;7.05;;
70761;SDS011;58360;0.000;0.000;2023-05-21T13:23:11;11.27;;;7.03;;
70761;SDS011;58360;0.000;0.000;2023-05-21T13:25:36;9.63;;;7.30;;
70761;SDS011;58360;0.000;0.000;2023-05-21T13:28:02;13.68;;;6.50;;
70761;SDS011;58360;0.000;0.000;2023-05-21T13:30:34;12.00;;;7.97;;
70761;SDS011;58360;0.000;0.000;2023-05-21T13:33:00;13.13;;;7.70;;
70761;SDS011;58360;0.000;0.000;2023-05-21T13:35:26;9.27;;;7.22;;
70761;SDS011;58360;0.000;0.000;2023-05-21T13:37:52;11.10;;;6.93;;
70761;SDS011;58360;0.000;0.000;2023-05-21T13:40:18;12.68;;;7.80;;
70761;SDS011;58360;0.000;0.000;2023-05-21T13:42:45;13.40;;;8.00;;
70761;SDS011;58360;0.000;0.000;2023-05-21T13:45:13;19.23;;;9.45;;
70761;SDS011;58360;0.000;0.000;2023-05-21T13:47:43;12.98;;;8.85;;
70761;SDS011;58360;0.000;0.000;2023-05-21T13:50:10;11.93;;;8.23;;
70761;SDS011;58360;0.000;0.000;2023-05-21T13:52:36;10.95;;;7.55;;
70761;SDS011;58360;0.000;0.000;2023-05-21T13:55:02;11.05;;;7.53;;
70761;SDS011;58360;0.000;0.000;2023-05-21T13:57:28;10.13;;;7.70;;
70761;SDS011;58360;0.000;0.000;2023-05-21T13:59:55;9.65;;;6.72;;
70761;SDS011;58360;0.000;0.000;2023-05-21T14:02:21;13.10;;;8.10;;
70761;SDS011;58360;0.000;0.000;2023-05-21T14:04:47;11.57;;;8.10;;
70761;SDS011;58360;0.000;0.000;2023-05-21T14:07:13;13.07;;;8.50;;
70761;SDS011;58360;0.000;0.000;2023-05-21T14:09:39;10.15;;;7.68;;
70761;SDS011;58360;0.000;0.000;2023-05-21T14:12:04;11.82;;;7.90;;
70761;SDS011;58360;0.000;0.000;2023-05-21T14:14:31;10.13;;;7.70;;
70761;SDS011;58360;0.000;0.000;2023-05-21T14:16:57;10.90;;;8.25;;
70761;SDS011;58360;0.000;0.000;2023-05-21T14:19:23;11.10;;;8.15;;
70761;SDS011;58360;0.000;0.000;2023-05-21T14:21:51;10.40;;;7.03;;
70761;SDS011;58360;0.000;0.000;2023-05-21T14:24:17;14.57;;;8.48;;
70761;SDS011;58360;0.000;0.000;2023-05-21T14:26:43;12.05;;;7.80;;
70761;SDS011;58360;0.000;0.000;2023-05-21T14:29:09;13.27;;;8.18;;
70761;SDS011;58360;0.000;0.000;2023-05-21T14:31:35;12.70;;;7.78;;
70761;SDS011;58360;0.000;0.000;2023-05-21T14:34:01;10.27;;;7.18;;
70761;SDS011;58360;0.000;0.000;2023-05-21T14:36:27;9.88;;;6.63;;
70761;SDS011;58360;0.000;0.000;2023-05-21T14:38:53;12.85;;;7.47;;
70761;SDS011;58360;0.000;0.000;2023-05-21T14:41:22;11.73;;;7.65;;
70761;SDS011;58360;0.000;0.000;2023-05-21T14:43:48;11.48;;;6.85;;
70761;SDS011;58360;0.000;0.000;2023-05-21T14:46:14;10.10;;;6.68;;
70761;SDS011;58360;0.000;0.000;2023-05-21T14:48:39;11.60;;;7.32;;
70761;SDS011;58360;0.000;0.000;2023-05-21T14:51:05;13.20;;;7.88;;
70761;SDS011;58360;0.000;0.000;2023-05-21T14:53:32;9.35;;;6.63;;
70761;SDS011;58360;0.000;0.000;2023-05-21T14:55:58;9.20;;;6.82;;
70761;SDS011;58360;0.000;0.000;2023-05-21T14:58:24;12.90;;;7.93;;
70761;SDS011;58360;0.000;0.000;2023-05-21T15:00:49;9.82;;;6.97;;
70761;SDS011;58360;0.000;0.000;2023-05-21T15:03:15;9.90;;;7.22;;
70761;SDS011;58360;0.000;0.000;2023-05-21T15:05:41;15.30;;;7.90;;
70761;SDS011;58360;0.000;0.000;2023-05-21T15:08:06;18.05;;;7.55;;
70761;SDS011;58360;0.000;0.000;2023-05-21T15:10:33;10.15;;;6.00;;
70761;SDS011;58360;0.000;0.000;2023-05-21T15:12:59;10.77;;;6.57;;
70761;SDS011;58360;0.000;0.000;2023-05-21T15:15:25;11.73;;;7.38;;
70761;SDS011;58360;0.000;0.000;2023-05-21T15:17:50;10.65;;;8.82;;
70761;SDS011;58360;0.000;0.000;2023-05-21T15:20:16;9.32;;;7.13;;
70761;SDS011;58360;0.000;0.000;2023-05-21T15:22:45;10.38;;;7.35;;
70761;SDS011;58360;0.000;0.000;2023-05-21T15:25:11;9.48;;;6.60;;
70761;SDS011;58360;0.000;0.000;2023-05-21T15:27:37;11.95;;;7.72;;